sensor_id;sensor_type;location;lat;lon;timestamp;temperature;humidity
4501;DHT22;2263;54.654;9.410;2023-06-05T00:01:48;15.50;62.90
4501;DHT22;2263;54.654;9.410;2023-06-05T00:04:18;15.50;62.80
4501;DHT22;2263;54.654;9.410;2023-06-05T00:06:46;15.50;62.60
4501;DHT22;2263;54.654;9.410;2023-06-05T00:09:13;15.50;63.00
4501;DHT22;2263;54.654;9.410;2023-06-05T00:11:41;15.50;63.00
4501;DHT22;2263;54.654;9.410;2023-06-05T00:14:09;15.40;62.80
4501;DHT22;2263;54.654;9.410;2023-06-05T00:16:36;15.40;62.60
4501;DHT22;2263;54.654;9.410;2023-06-05T00:19:04;15.40;62.60
4501;DHT22;2263;54.654;9.410;2023-06-05T00:21:32;15.30;62.60
4501;DHT22;2263;54.654;9.410;2023-06-05T00:24:00;15.30;63.00
4501;DHT22;2263;54.654;9.410;2023-06-05T00:26:27;15.30;62.60
4501;DHT22;2263;54.654;9.410;2023-06-05T00:28:55;15.30;62.50
4501;DHT22;2263;54.654;9.410;2023-06-05T00:31:23;15.30;62.70
4501;DHT22;2263;54.654;9.410;2023-06-05T00:33:51;15.30;62.80
4501;DHT22;2263;54.654;9.410;2023-06-05T00:36:19;15.20;62.40
4501;DHT22;2263;54.654;9.410;2023-06-05T00:38:50;15.20;62.70
4501;DHT22;2263;54.654;9.410;2023-06-05T00:41:18;15.20;62.50
4501;DHT22;2263;54.654;9.410;2023-06-05T00:43:45;15.20;62.50
4501;DHT22;2263;54.654;9.410;2023-06-05T00:46:13;15.20;62.50
4501;DHT22;2263;54.654;9.410;2023-06-05T00:48:42;15.10;62.70
4501;DHT22;2263;54.654;9.410;2023-06-05T00:51:10;15.10;62.40
4501;DHT22;2263;54.654;9.410;2023-06-05T00:53:43;15.10;62.30
4501;DHT22;2263;54.654;9.410;2023-06-05T00:56:12;15.00;62.30
4501;DHT22;2263;54.654;9.410;2023-06-05T00:58:39;15.00;62.30
4501;DHT22;2263;54.654;9.410;2023-06-05T01:01:09;15.00;62.30
4501;DHT22;2263;54.654;9.410;2023-06-05T01:03:38;15.00;62.30
4501;DHT22;2263;54.654;9.410;2023-06-05T01:06:07;15.00;62.30
4501;DHT22;2263;54.654;9.410;2023-06-05T01:08:35;15.00;62.40
4501;DHT22;2263;54.654;9.410;2023-06-05T01:13:55;14.90;62.30
4501;DHT22;2263;54.654;9.410;2023-06-05T01:16:26;14.90;62.30
4501;DHT22;2263;54.654;9.410;2023-06-05T01:19:01;14.80;62.10
4501;DHT22;2263;54.654;9.410;2023-06-05T01:21:31;14.90;62.20
4501;DHT22;2263;54.654;9.410;2023-06-05T01:23:59;14.80;62.20
4501;DHT22;2263;54.654;9.410;2023-06-05T01:26:39;14.80;62.50
4501;DHT22;2263;54.654;9.410;2023-06-05T01:29:14;14.80;62.30
4501;DHT22;2263;54.654;9.410;2023-06-05T01:31:45;14.70;62.30
4501;DHT22;2263;54.654;9.410;2023-06-05T01:34:15;14.70;62.10
4501;DHT22;2263;54.654;9.410;2023-06-05T01:36:47;14.70;62.20
4501;DHT22;2263;54.654;9.410;2023-06-05T01:39:15;14.70;62.20
4501;DHT22;2263;54.654;9.410;2023-06-05T01:41:46;14.70;62.30
4501;DHT22;2263;54.654;9.410;2023-06-05T01:44:15;14.70;62.20
4501;DHT22;2263;54.654;9.410;2023-06-05T01:46:45;14.60;62.20
4501;DHT22;2263;54.654;9.410;2023-06-05T01:49:13;14.60;62.40
4501;DHT22;2263;54.654;9.410;2023-06-05T01:51:41;14.60;62.20
4501;DHT22;2263;54.654;9.410;2023-06-05T01:54:09;14.60;62.00
4501;DHT22;2263;54.654;9.410;2023-06-05T01:56:36;14.50;62.20
4501;DHT22;2263;54.654;9.410;2023-06-05T01:59:04;14.50;62.20
4501;DHT22;2263;54.654;9.410;2023-06-05T02:01:34;14.50;62.00
4501;DHT22;2263;54.654;9.410;2023-06-05T02:04:02;14.50;62.10
4501;DHT22;2263;54.654;9.410;2023-06-05T02:06:34;14.50;62.50
4501;DHT22;2263;54.654;9.410;2023-06-05T02:09:11;14.40;61.90
4501;DHT22;2263;54.654;9.410;2023-06-05T02:11:42;14.40;62.10
4501;DHT22;2263;54.654;9.410;2023-06-05T02:14:10;14.40;62.30
4501;DHT22;2263;54.654;9.410;2023-06-05T02:16:41;14.40;62.30
4501;DHT22;2263;54.654;9.410;2023-06-05T02:19:09;14.40;62.50
4501;DHT22;2263;54.654;9.410;2023-06-05T02:21:38;14.40;62.20
4501;DHT22;2263;54.654;9.410;2023-06-05T02:24:05;14.30;62.20
4501;DHT22;2263;54.654;9.410;2023-06-05T02:26:34;14.30;62.40
4501;DHT22;2263;54.654;9.410;2023-06-05T02:29:01;14.30;62.50
4501;DHT22;2263;54.654;9.410;2023-06-05T02:31:29;14.30;62.70
4501;DHT22;2263;54.654;9.410;2023-06-05T02:33:57;14.20;62.30
4501;DHT22;2263;54.654;9.410;2023-06-05T02:36:25;14.20;62.30
4501;DHT22;2263;54.654;9.410;2023-06-05T02:38:55;14.20;62.40
4501;DHT22;2263;54.654;9.410;2023-06-05T02:41:23;14.20;62.70
4501;DHT22;2263;54.654;9.410;2023-06-05T02:43:51;14.20;62.30
4501;DHT22;2263;54.654;9.410;2023-06-05T02:46:18;14.20;62.30
4501;DHT22;2263;54.654;9.410;2023-06-05T02:48:46;14.10;62.30
4501;DHT22;2263;54.654;9.410;2023-06-05T02:51:14;14.10;62.10
4501;DHT22;2263;54.654;9.410;2023-06-05T02:53:42;14.10;62.20
4501;DHT22;2263;54.654;9.410;2023-06-05T02:56:09;14.10;62.40
4501;DHT22;2263;54.654;9.410;2023-06-05T02:58:37;14.10;63.10
4501;DHT22;2263;54.654;9.410;2023-06-05T03:01:06;14.10;62.40
4501;DHT22;2263;54.654;9.410;2023-06-05T03:03:36;14.00;62.40
4501;DHT22;2263;54.654;9.410;2023-06-05T03:06:04;14.00;62.40
4501;DHT22;2263;54.654;9.410;2023-06-05T03:08:32;14.00;62.40
4501;DHT22;2263;54.654;9.410;2023-06-05T03:11:01;13.90;62.20
4501;DHT22;2263;54.654;9.410;2023-06-05T03:13:29;13.90;62.50
4501;DHT22;2263;54.654;9.410;2023-06-05T03:15:58;13.90;62.50
4501;DHT22;2263;54.654;9.410;2023-06-05T03:18:29;13.90;62.20
4501;DHT22;2263;54.654;9.410;2023-06-05T03:20:58;13.90;62.50
4501;DHT22;2263;54.654;9.410;2023-06-05T03:23:27;13.90;62.80
4501;DHT22;2263;54.654;9.410;2023-06-05T03:25:55;13.90;62.50
4501;DHT22;2263;54.654;9.410;2023-06-05T03:28:24;13.80;62.20
4501;DHT22;2263;54.654;9.410;2023-06-05T03:30:52;13.80;62.30
4501;DHT22;2263;54.654;9.410;2023-06-05T03:33:22;13.80;62.30
4501;DHT22;2263;54.654;9.410;2023-06-05T03:35:51;13.80;62.60
4501;DHT22;2263;54.654;9.410;2023-06-05T03:38:19;13.80;62.50
4501;DHT22;2263;54.654;9.410;2023-06-05T03:40:47;13.80;62.70
4501;DHT22;2263;54.654;9.410;2023-06-05T03:43:15;13.70;62.40
4501;DHT22;2263;54.654;9.410;2023-06-05T03:45:42;13.70;62.60
4501;DHT22;2263;54.654;9.410;2023-06-05T03:48:10;13.70;62.60
4501;DHT22;2263;54.654;9.410;2023-06-05T03:50:38;13.70;62.70
4501;DHT22;2263;54.654;9.410;2023-06-05T03:53:06;13.70;62.80
4501;DHT22;2263;54.654;9.410;2023-06-05T03:55:36;13.70;62.80
4501;DHT22;2263;54.654;9.410;2023-06-05T03:58:14;13.70;62.70
4501;DHT22;2263;54.654;9.410;2023-06-05T04:00:44;13.60;62.70
4501;DHT22;2263;54.654;9.410;2023-06-05T04:03:12;13.60;62.90
4501;DHT22;2263;54.654;9.410;2023-06-05T04:05:40;13.60;62.80
4501;DHT22;2263;54.654;9.410;2023-06-05T04:08:09;13.60;63.30
4501;DHT22;2263;54.654;9.410;2023-06-05T04:10:37;13.60;63.00
4501;DHT22;2263;54.654;9.410;2023-06-05T04:13:06;13.60;63.20
4501;DHT22;2263;54.654;9.410;2023-06-05T04:15:33;13.60;63.40
4501;DHT22;2263;54.654;9.410;2023-06-05T04:18:02;13.60;63.50
4501;DHT22;2263;54.654;9.410;2023-06-05T04:20:30;13.60;63.60
4501;DHT22;2263;54.654;9.410;2023-06-05T04:22:57;13.60;63.40
4501;DHT22;2263;54.654;9.410;2023-06-05T04:25:25;13.60;63.70
4501;DHT22;2263;54.654;9.410;2023-06-05T04:27:56;13.60;63.80
4501;DHT22;2263;54.654;9.410;2023-06-05T04:30:24;13.60;63.90
4501;DHT22;2263;54.654;9.410;2023-06-05T04:32:52;13.60;63.90
4501;DHT22;2263;54.654;9.410;2023-06-05T04:35:23;13.50;64.00
4501;DHT22;2263;54.654;9.410;2023-06-05T04:37:50;13.50;64.10
4501;DHT22;2263;54.654;9.410;2023-06-05T04:40:18;13.50;64.20
4501;DHT22;2263;54.654;9.410;2023-06-05T04:42:47;13.60;64.40
4501;DHT22;2263;54.654;9.410;2023-06-05T04:45:14;13.50;64.40
4501;DHT22;2263;54.654;9.410;2023-06-05T04:47:43;13.50;64.70
4501;DHT22;2263;54.654;9.410;2023-06-05T04:50:25;13.60;64.80
4501;DHT22;2263;54.654;9.410;2023-06-05T04:52:53;13.50;64.80
4501;DHT22;2263;54.654;9.410;2023-06-05T04:55:21;13.50;64.80
4501;DHT22;2263;54.654;9.410;2023-06-05T04:57:49;13.50;64.90
4501;DHT22;2263;54.654;9.410;2023-06-05T05:00:17;13.60;65.30
4501;DHT22;2263;54.654;9.410;2023-06-05T05:02:44;13.50;65.30
4501;DHT22;2263;54.654;9.410;2023-06-05T05:05:12;13.50;65.70
4501;DHT22;2263;54.654;9.410;2023-06-05T05:07:41;13.60;65.80
4501;DHT22;2263;54.654;9.410;2023-06-05T05:10:10;13.50;65.60
4501;DHT22;2263;54.654;9.410;2023-06-05T05:12:38;13.50;65.80
4501;DHT22;2263;54.654;9.410;2023-06-05T05:15:06;13.50;65.90
4501;DHT22;2263;54.654;9.410;2023-06-05T05:17:34;13.50;66.00
4501;DHT22;2263;54.654;9.410;2023-06-05T05:20:02;13.50;66.20
4501;DHT22;2263;54.654;9.410;2023-06-05T05:22:31;13.50;66.10
4501;DHT22;2263;54.654;9.410;2023-06-05T05:24:58;13.50;66.20
4501;DHT22;2263;54.654;9.410;2023-06-05T05:27:26;13.50;66.30
4501;DHT22;2263;54.654;9.410;2023-06-05T05:29:54;13.50;66.20
4501;DHT22;2263;54.654;9.410;2023-06-05T05:32:22;13.60;66.30
4501;DHT22;2263;54.654;9.410;2023-06-05T05:34:49;13.50;66.80
4501;DHT22;2263;54.654;9.410;2023-06-05T05:37:18;13.60;66.60
4501;DHT22;2263;54.654;9.410;2023-06-05T05:39:45;13.60;67.40
4501;DHT22;2263;54.654;9.410;2023-06-05T05:42:13;13.60;66.70
4501;DHT22;2263;54.654;9.410;2023-06-05T05:44:40;13.60;66.90
4501;DHT22;2263;54.654;9.410;2023-06-05T05:47:11;13.60;67.10
4501;DHT22;2263;54.654;9.410;2023-06-05T05:49:39;13.60;67.10
4501;DHT22;2263;54.654;9.410;2023-06-05T05:52:06;13.60;67.50
4501;DHT22;2263;54.654;9.410;2023-06-05T05:54:34;13.60;67.40
4501;DHT22;2263;54.654;9.410;2023-06-05T05:57:01;13.60;67.40
4501;DHT22;2263;54.654;9.410;2023-06-05T05:59:29;13.60;67.50
4501;DHT22;2263;54.654;9.410;2023-06-05T06:01:57;13.60;67.50
4501;DHT22;2263;54.654;9.410;2023-06-05T06:04:26;13.60;67.50
4501;DHT22;2263;54.654;9.410;2023-06-05T06:06:54;13.70;68.10
4501;DHT22;2263;54.654;9.410;2023-06-05T06:09:23;13.70;68.00
4501;DHT22;2263;54.654;9.410;2023-06-05T06:11:52;13.70;68.00
4501;DHT22;2263;54.654;9.410;2023-06-05T06:14:23;13.70;67.90
4501;DHT22;2263;54.654;9.410;2023-06-05T06:16:50;13.70;68.00
4501;DHT22;2263;54.654;9.410;2023-06-05T06:19:18;13.70;67.90
4501;DHT22;2263;54.654;9.410;2023-06-05T06:21:50;13.70;68.00
4501;DHT22;2263;54.654;9.410;2023-06-05T06:24:19;13.70;67.90
4501;DHT22;2263;54.654;9.410;2023-06-05T06:26:49;13.70;67.70
4501;DHT22;2263;54.654;9.410;2023-06-05T06:29:19;13.70;67.90
4501;DHT22;2263;54.654;9.410;2023-06-05T06:31:50;13.70;68.00
4501;DHT22;2263;54.654;9.410;2023-06-05T06:34:18;13.70;68.80
4501;DHT22;2263;54.654;9.410;2023-06-05T06:36:46;13.80;68.00
4501;DHT22;2263;54.654;9.410;2023-06-05T06:39:13;13.80;68.50
4501;DHT22;2263;54.654;9.410;2023-06-05T06:41:41;13.80;68.70
4501;DHT22;2263;54.654;9.410;2023-06-05T06:44:09;13.80;68.60
4501;DHT22;2263;54.654;9.410;2023-06-05T06:46:36;13.80;68.40
4501;DHT22;2263;54.654;9.410;2023-06-05T06:49:04;13.80;68.70
4501;DHT22;2263;54.654;9.410;2023-06-05T06:51:33;13.90;68.70
4501;DHT22;2263;54.654;9.410;2023-06-05T06:54:01;13.90;69.90
4501;DHT22;2263;54.654;9.410;2023-06-05T06:56:28;13.90;68.80
4501;DHT22;2263;54.654;9.410;2023-06-05T06:58:56;13.90;68.90
4501;DHT22;2263;54.654;9.410;2023-06-05T07:01:24;14.00;69.70
4501;DHT22;2263;54.654;9.410;2023-06-05T07:03:52;14.00;69.20
4501;DHT22;2263;54.654;9.410;2023-06-05T07:06:20;14.00;68.90
4501;DHT22;2263;54.654;9.410;2023-06-05T07:08:49;14.00;68.80
4501;DHT22;2263;54.654;9.410;2023-06-05T07:11:17;14.00;68.80
4501;DHT22;2263;54.654;9.410;2023-06-05T07:13:45;14.00;68.80
4501;DHT22;2263;54.654;9.410;2023-06-05T07:16:13;14.10;69.70
4501;DHT22;2263;54.654;9.410;2023-06-05T07:18:40;14.10;69.20
4501;DHT22;2263;54.654;9.410;2023-06-05T07:21:08;14.10;69.10
4501;DHT22;2263;54.654;9.410;2023-06-05T07:23:36;14.10;69.00
4501;DHT22;2263;54.654;9.410;2023-06-05T07:26:04;14.20;69.20
4501;DHT22;2263;54.654;9.410;2023-06-05T07:28:31;14.20;69.40
4501;DHT22;2263;54.654;9.410;2023-06-05T07:30:59;14.20;69.30
4501;DHT22;2263;54.654;9.410;2023-06-05T07:33:30;14.20;69.30
4501;DHT22;2263;54.654;9.410;2023-06-05T07:36:01;14.30;69.40
4501;DHT22;2263;54.654;9.410;2023-06-05T07:38:29;14.30;69.40
4501;DHT22;2263;54.654;9.410;2023-06-05T07:40:57;14.30;69.50
4501;DHT22;2263;54.654;9.410;2023-06-05T07:43:25;14.30;69.40
4501;DHT22;2263;54.654;9.410;2023-06-05T07:45:53;14.40;69.60
4501;DHT22;2263;54.654;9.410;2023-06-05T07:48:21;14.40;69.80
4501;DHT22;2263;54.654;9.410;2023-06-05T07:50:49;14.50;72.40
4501;DHT22;2263;54.654;9.410;2023-06-05T07:53:17;14.60;73.40
4501;DHT22;2263;54.654;9.410;2023-06-05T07:55:44;14.60;72.70
4501;DHT22;2263;54.654;9.410;2023-06-05T07:58:12;14.70;73.40
4501;DHT22;2263;54.654;9.410;2023-06-05T08:00:41;14.70;74.20
4501;DHT22;2263;54.654;9.410;2023-06-05T08:03:15;14.80;73.50
4501;DHT22;2263;54.654;9.410;2023-06-05T08:05:49;14.80;73.70
4501;DHT22;2263;54.654;9.410;2023-06-05T08:08:17;14.90;74.80
4501;DHT22;2263;54.654;9.410;2023-06-05T08:10:45;15.00;74.70
4501;DHT22;2263;54.654;9.410;2023-06-05T08:13:14;15.00;73.60
4501;DHT22;2263;54.654;9.410;2023-06-05T08:15:43;15.00;73.50
4501;DHT22;2263;54.654;9.410;2023-06-05T08:18:11;15.00;73.10
4501;DHT22;2263;54.654;9.410;2023-06-05T08:20:38;15.00;72.90
4501;DHT22;2263;54.654;9.410;2023-06-05T08:23:07;15.00;72.60
4501;DHT22;2263;54.654;9.410;2023-06-05T08:25:35;15.10;72.60
4501;DHT22;2263;54.654;9.410;2023-06-05T08:28:03;15.10;72.20
4501;DHT22;2263;54.654;9.410;2023-06-05T08:30:30;15.10;71.80
4501;DHT22;2263;54.654;9.410;2023-06-05T08:32:58;15.10;71.90
4501;DHT22;2263;54.654;9.410;2023-06-05T08:35:26;15.20;71.80
4501;DHT22;2263;54.654;9.410;2023-06-05T08:37:53;15.20;71.70
4501;DHT22;2263;54.654;9.410;2023-06-05T08:40:23;15.20;71.70
4501;DHT22;2263;54.654;9.410;2023-06-05T08:42:52;15.20;71.60
4501;DHT22;2263;54.654;9.410;2023-06-05T08:45:20;15.30;71.70
4501;DHT22;2263;54.654;9.410;2023-06-05T08:47:50;15.30;71.60
4501;DHT22;2263;54.654;9.410;2023-06-05T08:50:19;15.30;71.70
4501;DHT22;2263;54.654;9.410;2023-06-05T08:52:47;15.40;71.80
4501;DHT22;2263;54.654;9.410;2023-06-05T08:55:17;15.40;71.90
4501;DHT22;2263;54.654;9.410;2023-06-05T08:57:45;15.40;72.00
4501;DHT22;2263;54.654;9.410;2023-06-05T09:00:12;15.50;71.90
4501;DHT22;2263;54.654;9.410;2023-06-05T09:02:42;15.50;71.80
4501;DHT22;2263;54.654;9.410;2023-06-05T09:05:16;15.50;71.80
4501;DHT22;2263;54.654;9.410;2023-06-05T09:07:44;15.50;71.80
4501;DHT22;2263;54.654;9.410;2023-06-05T09:10:26;15.60;72.10
4501;DHT22;2263;54.654;9.410;2023-06-05T09:12:58;15.60;72.20
4501;DHT22;2263;54.654;9.410;2023-06-05T09:15:33;15.70;72.00
4501;DHT22;2263;54.654;9.410;2023-06-05T09:20:38;15.70;71.70
4501;DHT22;2263;54.654;9.410;2023-06-05T09:23:22;15.80;71.80
4501;DHT22;2263;54.654;9.410;2023-06-05T09:25:59;15.80;71.90
4501;DHT22;2263;54.654;9.410;2023-06-05T09:28:27;15.90;72.10
4501;DHT22;2263;54.654;9.410;2023-06-05T09:31:02;15.90;72.10
4501;DHT22;2263;54.654;9.410;2023-06-05T09:33:31;16.00;72.00
4501;DHT22;2263;54.654;9.410;2023-06-05T09:36:12;16.00;72.30
4501;DHT22;2263;54.654;9.410;2023-06-05T09:38:41;16.10;72.60
4501;DHT22;2263;54.654;9.410;2023-06-05T09:41:13;16.10;72.40
4501;DHT22;2263;54.654;9.410;2023-06-05T09:43:46;16.10;72.30
4501;DHT22;2263;54.654;9.410;2023-06-05T09:46:18;16.10;72.20
4501;DHT22;2263;54.654;9.410;2023-06-05T09:48:57;16.20;72.20
4501;DHT22;2263;54.654;9.410;2023-06-05T09:51:26;16.20;72.10
4501;DHT22;2263;54.654;9.410;2023-06-05T09:53:54;16.20;72.20
4501;DHT22;2263;54.654;9.410;2023-06-05T09:56:26;16.30;72.20
4501;DHT22;2263;54.654;9.410;2023-06-05T09:58:53;16.30;72.20
4501;DHT22;2263;54.654;9.410;2023-06-05T10:01:24;16.40;72.20
4501;DHT22;2263;54.654;9.410;2023-06-05T10:03:59;16.40;72.10
4501;DHT22;2263;54.654;9.410;2023-06-05T10:06:28;16.40;71.90
4501;DHT22;2263;54.654;9.410;2023-06-05T10:08:56;16.50;71.80
4501;DHT22;2263;54.654;9.410;2023-06-05T10:11:24;16.50;71.90
4501;DHT22;2263;54.654;9.410;2023-06-05T10:13:56;16.60;72.00
4501;DHT22;2263;54.654;9.410;2023-06-05T10:16:27;16.60;72.00
4501;DHT22;2263;54.654;9.410;2023-06-05T10:18:59;16.60;71.80
4501;DHT22;2263;54.654;9.410;2023-06-05T10:21:27;16.70;71.80
4501;DHT22;2263;54.654;9.410;2023-06-05T10:24:12;16.70;71.80
4501;DHT22;2263;54.654;9.410;2023-06-05T10:38:26;16.90;71.80
4501;DHT22;2263;54.654;9.410;2023-06-05T10:40:55;16.90;71.70
4501;DHT22;2263;54.654;9.410;2023-06-05T10:43:28;17.00;71.80
4501;DHT22;2263;54.654;9.410;2023-06-05T10:45:58;17.10;72.00
4501;DHT22;2263;54.654;9.410;2023-06-05T10:51:49;17.20;72.10
4501;DHT22;2263;54.654;9.410;2023-06-05T10:59:20;17.40;71.80
4501;DHT22;2263;54.654;9.410;2023-06-05T11:07:16;17.50;71.50
4501;DHT22;2263;54.654;9.410;2023-06-05T11:15:11;17.60;71.50
4501;DHT22;2263;54.654;9.410;2023-06-05T11:17:42;17.60;71.50
4501;DHT22;2263;54.654;9.410;2023-06-05T11:20:48;17.60;71.50
4501;DHT22;2263;54.654;9.410;2023-06-05T11:23:16;17.70;71.60
4501;DHT22;2263;54.654;9.410;2023-06-05T11:25:44;17.70;71.40
4501;DHT22;2263;54.654;9.410;2023-06-05T11:28:12;18.10;69.70
4501;DHT22;2263;54.654;9.410;2023-06-05T11:30:41;18.40;69.40
4501;DHT22;2263;54.654;9.410;2023-06-05T11:33:17;18.40;69.00
4501;DHT22;2263;54.654;9.410;2023-06-05T11:35:48;18.40;69.20
4501;DHT22;2263;54.654;9.410;2023-06-05T11:38:18;18.30;69.50
4501;DHT22;2263;54.654;9.410;2023-06-05T11:40:53;18.30;69.70
4501;DHT22;2263;54.654;9.410;2023-06-05T11:43:21;18.30;69.60
4501;DHT22;2263;54.654;9.410;2023-06-05T11:45:57;18.30;69.80
4501;DHT22;2263;54.654;9.410;2023-06-05T11:48:25;18.30;69.80
4501;DHT22;2263;54.654;9.410;2023-06-05T11:50:56;18.30;69.80
4501;DHT22;2263;54.654;9.410;2023-06-05T11:53:26;18.30;69.80
4501;DHT22;2263;54.654;9.410;2023-06-05T11:55:54;18.30;69.80
4501;DHT22;2263;54.654;9.410;2023-06-05T11:58:37;18.40;69.90
4501;DHT22;2263;54.654;9.410;2023-06-05T12:01:08;18.40;70.00
4501;DHT22;2263;54.654;9.410;2023-06-05T12:03:46;18.50;70.00
4501;DHT22;2263;54.654;9.410;2023-06-05T12:06:15;18.50;70.20
4501;DHT22;2263;54.654;9.410;2023-06-05T12:08:45;18.50;70.10
4501;DHT22;2263;54.654;9.410;2023-06-05T12:11:26;18.50;69.90
4501;DHT22;2263;54.654;9.410;2023-06-05T12:13:56;18.60;70.00
4501;DHT22;2263;54.654;9.410;2023-06-05T12:16:31;18.60;70.00
4501;DHT22;2263;54.654;9.410;2023-06-05T12:19:11;18.70;70.00
4501;DHT22;2263;54.654;9.410;2023-06-05T12:21:46;18.70;69.80
4501;DHT22;2263;54.654;9.410;2023-06-05T12:24:14;18.80;69.80
4501;DHT22;2263;54.654;9.410;2023-06-05T12:29:37;19.30;68.70
4501;DHT22;2263;54.654;9.410;2023-06-05T12:32:22;19.50;68.50
4501;DHT22;2263;54.654;9.410;2023-06-05T12:34:51;19.70;67.60
4501;DHT22;2263;54.654;9.410;2023-06-05T12:37:26;19.70;66.80
4501;DHT22;2263;54.654;9.410;2023-06-05T12:40:01;19.90;67.20
4501;DHT22;2263;54.654;9.410;2023-06-05T12:42:33;19.80;66.30
4501;DHT22;2263;54.654;9.410;2023-06-05T12:45:05;19.70;67.00
4501;DHT22;2263;54.654;9.410;2023-06-05T12:47:35;19.70;67.50
4501;DHT22;2263;54.654;9.410;2023-06-05T12:50:04;19.60;67.70
4501;DHT22;2263;54.654;9.410;2023-06-05T12:52:32;19.60;67.90
4501;DHT22;2263;54.654;9.410;2023-06-05T12:55:00;19.60;67.90
4501;DHT22;2263;54.654;9.410;2023-06-05T12:57:28;19.60;68.00
4501;DHT22;2263;54.654;9.410;2023-06-05T12:59:56;19.60;68.00
4501;DHT22;2263;54.654;9.410;2023-06-05T13:02:24;19.60;68.00
4501;DHT22;2263;54.654;9.410;2023-06-05T13:04:52;19.60;68.00
4501;DHT22;2263;54.654;9.410;2023-06-05T13:07:19;19.60;67.90
4501;DHT22;2263;54.654;9.410;2023-06-05T13:09:48;19.60;68.00
4501;DHT22;2263;54.654;9.410;2023-06-05T13:12:22;19.60;68.00
4501;DHT22;2263;54.654;9.410;2023-06-05T13:14:50;19.70;67.80
4501;DHT22;2263;54.654;9.410;2023-06-05T13:17:17;19.70;67.90
4501;DHT22;2263;54.654;9.410;2023-06-05T13:19:45;19.70;67.90
4501;DHT22;2263;54.654;9.410;2023-06-05T13:22:16;19.70;67.80
4501;DHT22;2263;54.654;9.410;2023-06-05T13:24:46;19.70;67.80
4501;DHT22;2263;54.654;9.410;2023-06-05T13:27:15;19.80;67.90
4501;DHT22;2263;54.654;9.410;2023-06-05T13:29:44;19.80;67.80
4501;DHT22;2263;54.654;9.410;2023-06-05T13:32:11;19.80;67.80
4501;DHT22;2263;54.654;9.410;2023-06-05T13:34:39;19.90;67.70
4501;DHT22;2263;54.654;9.410;2023-06-05T13:37:07;19.90;67.80
4501;DHT22;2263;54.654;9.410;2023-06-05T13:39:41;19.90;67.80
4501;DHT22;2263;54.654;9.410;2023-06-05T13:42:08;19.90;67.70
4501;DHT22;2263;54.654;9.410;2023-06-05T13:44:36;20.00;67.80
4501;DHT22;2263;54.654;9.410;2023-06-05T13:47:04;20.00;67.90
4501;DHT22;2263;54.654;9.410;2023-06-05T13:49:32;20.00;67.80
4501;DHT22;2263;54.654;9.410;2023-06-05T13:51:59;20.00;67.80
4501;DHT22;2263;54.654;9.410;2023-06-05T13:54:27;20.00;67.70
4501;DHT22;2263;54.654;9.410;2023-06-05T13:56:55;20.10;67.70
4501;DHT22;2263;54.654;9.410;2023-06-05T13:59:22;20.10;67.60
4501;DHT22;2263;54.654;9.410;2023-06-05T14:01:53;20.10;67.60
4501;DHT22;2263;54.654;9.410;2023-06-05T14:04:21;20.10;67.60
4501;DHT22;2263;54.654;9.410;2023-06-05T14:06:48;20.10;67.60
4501;DHT22;2263;54.654;9.410;2023-06-05T14:09:16;20.10;67.50
4501;DHT22;2263;54.654;9.410;2023-06-05T14:11:44;20.10;67.50
4501;DHT22;2263;54.654;9.410;2023-06-05T14:14:12;20.20;67.60
4501;DHT22;2263;54.654;9.410;2023-06-05T14:16:39;20.20;67.60
4501;DHT22;2263;54.654;9.410;2023-06-05T14:19:07;20.30;67.80
4501;DHT22;2263;54.654;9.410;2023-06-05T14:21:35;20.30;67.70
4501;DHT22;2263;54.654;9.410;2023-06-05T14:24:04;20.30;67.70
4501;DHT22;2263;54.654;9.410;2023-06-05T14:26:33;20.30;67.70
4501;DHT22;2263;54.654;9.410;2023-06-05T14:29:00;20.30;67.70
4501;DHT22;2263;54.654;9.410;2023-06-05T14:31:28;20.40;67.80
4501;DHT22;2263;54.654;9.410;2023-06-05T14:33:56;20.40;67.80
4501;DHT22;2263;54.654;9.410;2023-06-05T14:36:24;20.40;67.70
4501;DHT22;2263;54.654;9.410;2023-06-05T14:38:52;20.40;67.70
4501;DHT22;2263;54.654;9.410;2023-06-05T14:41:23;20.40;67.80
4501;DHT22;2263;54.654;9.410;2023-06-05T14:43:53;20.40;67.70
4501;DHT22;2263;54.654;9.410;2023-06-05T14:46:23;20.60;67.10
4501;DHT22;2263;54.654;9.410;2023-06-05T14:48:50;20.70;67.40
4501;DHT22;2263;54.654;9.410;2023-06-05T14:51:18;20.70;67.00
4501;DHT22;2263;54.654;9.410;2023-06-05T14:53:46;20.70;67.20
4501;DHT22;2263;54.654;9.410;2023-06-05T14:56:14;20.70;67.50
4501;DHT22;2263;54.654;9.410;2023-06-05T14:58:42;20.70;67.40
4501;DHT22;2263;54.654;9.410;2023-06-05T15:01:09;20.70;67.20
4501;DHT22;2263;54.654;9.410;2023-06-05T15:03:37;20.60;67.40
4501;DHT22;2263;54.654;9.410;2023-06-05T15:06:05;20.60;67.50
4501;DHT22;2263;54.654;9.410;2023-06-05T15:08:48;20.70;66.40
4501;DHT22;2263;54.654;9.410;2023-06-05T15:11:15;20.80;66.60
4501;DHT22;2263;54.654;9.410;2023-06-05T15:13:44;20.80;67.20
4501;DHT22;2263;54.654;9.410;2023-06-05T15:16:11;20.70;67.20
4501;DHT22;2263;54.654;9.410;2023-06-05T15:18:39;20.70;67.40
4501;DHT22;2263;54.654;9.410;2023-06-05T15:21:07;20.70;67.60
4501;DHT22;2263;54.654;9.410;2023-06-05T15:23:35;20.70;67.10
4501;DHT22;2263;54.654;9.410;2023-06-05T15:26:02;20.70;67.00
4501;DHT22;2263;54.654;9.410;2023-06-05T15:28:30;20.70;67.30
4501;DHT22;2263;54.654;9.410;2023-06-05T15:30:58;20.70;67.50
4501;DHT22;2263;54.654;9.410;2023-06-05T15:33:25;20.80;67.50
4501;DHT22;2263;54.654;9.410;2023-06-05T15:35:53;20.80;67.80
4501;DHT22;2263;54.654;9.410;2023-06-05T15:38:21;20.80;67.50
4501;DHT22;2263;54.654;9.410;2023-06-05T15:40:48;20.80;67.60
4501;DHT22;2263;54.654;9.410;2023-06-05T15:43:16;20.80;67.80
4501;DHT22;2263;54.654;9.410;2023-06-05T15:45:44;20.80;68.10
4501;DHT22;2263;54.654;9.410;2023-06-05T15:48:12;20.80;67.80
4501;DHT22;2263;54.654;9.410;2023-06-05T15:50:39;20.80;68.20
4501;DHT22;2263;54.654;9.410;2023-06-05T15:53:07;20.80;68.10
4501;DHT22;2263;54.654;9.410;2023-06-05T15:55:35;20.80;67.80
4501;DHT22;2263;54.654;9.410;2023-06-05T15:58:05;20.80;68.00
4501;DHT22;2263;54.654;9.410;2023-06-05T16:00:33;20.80;67.80
4501;DHT22;2263;54.654;9.410;2023-06-05T16:03:01;20.80;68.10
4501;DHT22;2263;54.654;9.410;2023-06-05T16:05:29;20.80;68.40
4501;DHT22;2263;54.654;9.410;2023-06-05T16:07:58;20.90;68.50
4501;DHT22;2263;54.654;9.410;2023-06-05T16:10:26;20.90;68.50
4501;DHT22;2263;54.654;9.410;2023-06-05T16:12:53;20.90;68.40
4501;DHT22;2263;54.654;9.410;2023-06-05T16:15:21;20.90;68.50
4501;DHT22;2263;54.654;9.410;2023-06-05T16:17:49;20.90;68.60
4501;DHT22;2263;54.654;9.410;2023-06-05T16:20:19;20.90;68.60
4501;DHT22;2263;54.654;9.410;2023-06-05T16:22:46;21.00;66.50
4501;DHT22;2263;54.654;9.410;2023-06-05T16:25:14;21.10;65.70
4501;DHT22;2263;54.654;9.410;2023-06-05T16:27:42;21.10;65.50
4501;DHT22;2263;54.654;9.410;2023-06-05T16:30:09;21.10;65.70
4501;DHT22;2263;54.654;9.410;2023-06-05T16:32:37;21.10;65.90
4501;DHT22;2263;54.654;9.410;2023-06-05T16:35:05;21.10;65.20
4501;DHT22;2263;54.654;9.410;2023-06-05T16:37:34;21.10;65.80
4501;DHT22;2263;54.654;9.410;2023-06-05T16:40:02;21.10;65.60
4501;DHT22;2263;54.654;9.410;2023-06-05T16:42:30;21.10;66.00
4501;DHT22;2263;54.654;9.410;2023-06-05T16:44:57;21.00;65.40
4501;DHT22;2263;54.654;9.410;2023-06-05T16:47:25;21.10;66.10
4501;DHT22;2263;54.654;9.410;2023-06-05T16:49:53;21.10;66.00
4501;DHT22;2263;54.654;9.410;2023-06-05T16:52:21;21.10;65.80
4501;DHT22;2263;54.654;9.410;2023-06-05T16:54:51;21.00;66.00